Dame Des Tropiques — FQJE — position and weather

sailwx.info

Track history (hours):
 
Tides and Currents Weather Stations Pressure Air Temp Water Temp Dewpoint Dewpoint Depression Visibility Wind Speed Wind Dir Waves Ship Positions

Dame Des Tropiques

Last reported at 2017-Aug-20 19:54 UTC. Time now 2017-Aug-22 22:42 UTC.
Position N 43°07' E 005°56'.

Length 28 m.

Type: Sailing vessel. MMSI: 227471410.

Date/timePositionNaut miles runAvg speedWind from/ knotsBaromVisibWave heightAir tempDewpointWater temp
2017-Aug-20 19:54N 43°07' E 005°56'  
2017-Aug-17 14:56N 43°08' E 005°27'3 6.1
2017-Aug-17 14:23N 43°10' E 005°23'2 5.6
2017-Aug-17 13:59N 43°11' E 005°21'7 4.5
2017-Aug-17 12:31N 43°18' E 005°22'0 2.7
2017-Aug-17 12:31N 43°18' E 005°22'0 0.2
2017-Aug-17 11:58N 43°18' E 005°22'0 0.1
2017-Aug-17 11:25N 43°18' E 005°22'0 0.0
2017-Aug-17 10:58N 43°18' E 005°22'0 0.0
2017-Aug-17 10:29N 43°18' E 005°22'3 0.2
2017-Aug-16 22:05N 43°17' E 005°18'0 0.0
2017-Aug-16 21:50N 43°17' E 005°18'0 0.0
2017-Aug-16 21:20N 43°17' E 005°18'0 0.0
2017-Aug-16 20:56N 43°17' E 005°18'0 0.0
2017-Aug-16 18:32N 43°17' E 005°18'0 0.0
2017-Aug-16 18:29N 43°17' E 005°18'0 0.0
2017-Aug-16 17:53N 43°17' E 005°18'0 0.0
2017-Aug-16 17:23N 43°17' E 005°18'0 0.0
2017-Aug-16 16:44N 43°17' E 005°18'0 0.0
2017-Aug-16 16:29N 43°17' E 005°18'0 0.0
2017-Aug-16 15:56N 43°17' E 005°18'0 0.0
2017-Aug-16 15:29N 43°17' E 005°18'0 0.0
2017-Aug-16 14:47N 43°17' E 005°18'0 0.0
2017-Aug-15 22:26N 43°17' E 005°18'0 0.0
2017-Aug-15 20:32N 43°17' E 005°18'0 0.0
2017-Aug-15 20:20N 43°17' E 005°18'0 0.0
2017-Aug-15 19:56N 43°17' E 005°18'0 0.0
2017-Aug-15 19:29N 43°17' E 005°18'0 0.1
2017-Aug-15 18:53N 43°17' E 005°18'2 5.6
2017-Aug-15 18:29N 43°17' E 005°21'0 0.0
2017-Aug-15 17:54N 43°17' E 005°21'0 0.1
2017-Aug-15 17:30N 43°17' E 005°21'0 0.0
2017-Aug-15 17:00N 43°17' E 005°21'0 0.0
2017-Aug-15 16:30N 43°17' E 005°21'0 0.0
2017-Aug-15 15:57N 43°17' E 005°21'0 0.0
2017-Aug-15 14:09N 43°17' E 005°21'0 0.0
2017-Aug-15 13:42N 43°17' E 005°21'0 0.0
2017-Aug-15 13:27N 43°17' E 005°21'0 0.0
2017-Aug-15 12:57N 43°17' E 005°21'0 0.0
2017-Aug-15 11:45N 43°17' E 005°21'1 3.0
2017-Aug-15 11:26N 43°16' E 005°20'3 6.3
2017-Aug-15 11:00N 43°14' E 005°19'3 5.9
2017-Aug-15 10:30N 43°11' E 005°21'3 6.4
2017-Aug-15 10:00N 43°09' E 005°25'3 6.2
2017-Aug-15 09:30N 43°09' E 005°29'3 6.3
2017-Aug-15 08:57N 43°08' E 005°33'10 0.6
2017-Aug-14 17:35N 43°05' E 005°46'0 1.6
2017-Aug-14 17:26N 43°05' E 005°46'2 3.8
2017-Aug-14 17:00N 43°04' E 005°47'3 5.4
2017-Aug-14 16:30N 43°02' E 005°50'5 3.2
2017-Aug-14 14:53N 43°06' E 005°55'1 0.0
2017-Aug-13 14:42N 43°07' E 005°55'24 3.9
2017-Aug-13 08:25N 43°07' E 006°29'2 5.7
2017-Aug-13 08:00N 43°08' E 006°32'27 1.1
2017-Aug-12 07:37N 43°27' E 006°58'1 6.4
2017-Aug-12 07:30N 43°27' E 006°59'4 6.6
2017-Aug-12 06:51N 43°30' E 007°04'3 0.1
2017-Aug-11 10:45N 43°31' E 007°07'2 5.7
2017-Aug-11 10:29N 43°31' E 007°05'  
Track history (hours):
 
Tides and Currents Weather Stations Pressure Air Temp Water Temp Dewpoint Dewpoint Depression Visibility Wind Speed Wind Dir Waves Ship Positions

Dame Des Tropiques

Last reported at 2017-Aug-20 19:54 UTC. Time now 2017-Aug-22 22:42 UTC.
Position N 43°07' E 005°56'.

Length 28 m.

Type: Sailing vessel. MMSI: 227471410.

Date/timePositionNaut miles runAvg speedWind from/ knotsBaromVisibWave heightAir tempDewpointWater temp
2017-Aug-20 19:54N 43°07' E 005°56'  
2017-Aug-17 14:56N 43°08' E 005°27'3 6.1
2017-Aug-17 14:23N 43°10' E 005°23'2 5.6
2017-Aug-17 13:59N 43°11' E 005°21'7 4.5
2017-Aug-17 12:31N 43°18' E 005°22'0 2.7
2017-Aug-17 12:31N 43°18' E 005°22'0 0.2
2017-Aug-17 11:58N 43°18' E 005°22'0 0.1
2017-Aug-17 11:25N 43°18' E 005°22'0 0.0
2017-Aug-17 10:58N 43°18' E 005°22'0 0.0
2017-Aug-17 10:29N 43°18' E 005°22'3 0.2
2017-Aug-16 22:05N 43°17' E 005°18'0 0.0
2017-Aug-16 21:50N 43°17' E 005°18'0 0.0
2017-Aug-16 21:20N 43°17' E 005°18'0 0.0
2017-Aug-16 20:56N 43°17' E 005°18'0 0.0
2017-Aug-16 18:32N 43°17' E 005°18'0 0.0
2017-Aug-16 18:29N 43°17' E 005°18'0 0.0
2017-Aug-16 17:53N 43°17' E 005°18'0 0.0
2017-Aug-16 17:23N 43°17' E 005°18'0 0.0
2017-Aug-16 16:44N 43°17' E 005°18'0 0.0
2017-Aug-16 16:29N 43°17' E 005°18'0 0.0
2017-Aug-16 15:56N 43°17' E 005°18'0 0.0
2017-Aug-16 15:29N 43°17' E 005°18'0 0.0
2017-Aug-16 14:47N 43°17' E 005°18'0 0.0
2017-Aug-15 22:26N 43°17' E 005°18'0 0.0
2017-Aug-15 20:32N 43°17' E 005°18'0 0.0
2017-Aug-15 20:20N 43°17' E 005°18'0 0.0
2017-Aug-15 19:56N 43°17' E 005°18'0 0.0
2017-Aug-15 19:29N 43°17' E 005°18'0 0.1
2017-Aug-15 18:53N 43°17' E 005°18'2 5.6
2017-Aug-15 18:29N 43°17' E 005°21'0 0.0
2017-Aug-15 17:54N 43°17' E 005°21'0 0.1
2017-Aug-15 17:30N 43°17' E 005°21'0 0.0
2017-Aug-15 17:00N 43°17' E 005°21'0 0.0
2017-Aug-15 16:30N 43°17' E 005°21'0 0.0
2017-Aug-15 15:57N 43°17' E 005°21'0 0.0
2017-Aug-15 14:09N 43°17' E 005°21'0 0.0
2017-Aug-15 13:42N 43°17' E 005°21'0 0.0
2017-Aug-15 13:27N 43°17' E 005°21'0 0.0
2017-Aug-15 12:57N 43°17' E 005°21'0 0.0
2017-Aug-15 11:45N 43°17' E 005°21'1 3.0
2017-Aug-15 11:26N 43°16' E 005°20'3 6.3
2017-Aug-15 11:00N 43°14' E 005°19'3 5.9
2017-Aug-15 10:30N 43°11' E 005°21'3 6.4
2017-Aug-15 10:00N 43°09' E 005°25'3 6.2
2017-Aug-15 09:30N 43°09' E 005°29'3 6.3
2017-Aug-15 08:57N 43°08' E 005°33'10 0.6
2017-Aug-14 17:35N 43°05' E 005°46'0 1.6
2017-Aug-14 17:26N 43°05' E 005°46'2 3.8
2017-Aug-14 17:00N 43°04' E 005°47'3 5.4
2017-Aug-14 16:30N 43°02' E 005°50'5 3.2
2017-Aug-14 14:53N 43°06' E 005°55'1 0.0
2017-Aug-13 14:42N 43°07' E 005°55'24 3.9
2017-Aug-13 08:25N 43°07' E 006°29'2 5.7
2017-Aug-13 08:00N 43°08' E 006°32'27 1.1
2017-Aug-12 07:37N 43°27' E 006°58'1 6.4
2017-Aug-12 07:30N 43°27' E 006°59'4 6.6
2017-Aug-12 06:51N 43°30' E 007°04'3 0.1
2017-Aug-11 10:45N 43°31' E 007°07'2 5.7
2017-Aug-11 10:29N 43°31' E 007°05'  

Dump ship's entire track history